createdAt,value
2023-04-29T00:01:39.764Z,55.35
2023-04-29T00:04:09.320Z,55.36
2023-04-29T00:06:37.982Z,55.33
2023-04-29T00:09:06.456Z,55.41
2023-04-29T00:11:34.838Z,55.49
2023-04-29T00:14:03.484Z,55.55
2023-04-29T00:16:32.252Z,55.71
2023-04-29T00:19:01.428Z,55.79
2023-04-29T00:21:29.727Z,55.75
2023-04-29T00:23:58.418Z,55.89
2023-04-29T00:26:26.842Z,56.53
2023-04-29T00:28:55.293Z,56.71
2023-04-29T00:31:24.001Z,56.84
2023-04-29T00:33:52.394Z,57.29
2023-04-29T00:36:20.777Z,57.57
2023-04-29T00:38:49.154Z,57.60
2023-04-29T00:41:17.802Z,57.60
2023-04-29T00:43:46.156Z,57.50
2023-04-29T00:46:14.725Z,57.66
2023-04-29T00:48:43.116Z,57.31
2023-04-29T00:51:11.605Z,57.98
2023-04-29T00:53:40.102Z,58.27
2023-04-29T00:56:09.028Z,58.73
2023-04-29T00:58:39.379Z,59.01
2023-04-29T01:01:08.545Z,59.77
2023-04-29T01:03:37.543Z,60.75
2023-04-29T01:06:23.644Z,61.24
2023-04-29T01:09:24.309Z,61.92
2023-04-29T01:12:02.095Z,62.17
2023-04-29T01:14:32.307Z,62.40
2023-04-29T01:17:05.955Z,62.38
2023-04-29T01:19:55.405Z,62.94
2023-04-29T01:22:24.074Z,63.02
2023-04-29T01:24:52.473Z,63.18
2023-04-29T01:27:43.067Z,63.02
2023-04-29T01:30:32.239Z,63.52
2023-04-29T01:33:15.564Z,63.50
2023-04-29T01:35:51.590Z,63.82
2023-04-29T01:38:53.359Z,64.15
2023-04-29T01:41:34.103Z,63.75
2023-04-29T01:44:19.289Z,64.32
2023-04-29T01:46:51.336Z,64.37
2023-04-29T01:49:30.206Z,64.78
2023-04-29T01:51:58.762Z,65.19
2023-04-29T01:54:27.362Z,65.58
2023-04-29T01:56:57.616Z,65.27
2023-04-29T01:59:36.693Z,65.47
2023-04-29T02:02:37.345Z,65.61
2023-04-29T02:05:13.072Z,65.72
2023-04-29T02:07:46.145Z,65.95
2023-04-29T02:10:14.719Z,65.33
2023-04-29T02:12:43.819Z,65.88
2023-04-29T02:15:12.504Z,66.14
2023-04-29T02:17:41.402Z,66.16
2023-04-29T02:20:10.680Z,66.33
2023-04-29T02:22:39.506Z,66.79
2023-04-29T02:25:08.137Z,66.89
2023-04-29T02:27:36.590Z,66.72
2023-04-29T02:30:07.300Z,66.71
2023-04-29T02:32:35.922Z,66.60
2023-04-29T02:35:04.595Z,67.00
2023-04-29T02:37:32.973Z,66.64
2023-04-29T02:40:02.388Z,66.82
2023-04-29T02:42:32.265Z,67.71
2023-04-29T02:45:02.773Z,67.80
2023-04-29T02:47:31.332Z,67.36
2023-04-29T02:49:59.761Z,67.54
2023-04-29T02:52:28.236Z,67.48
2023-04-29T02:54:56.766Z,67.60
2023-04-29T02:57:25.334Z,67.38
2023-04-29T02:59:53.927Z,67.47
2023-04-29T03:02:22.517Z,67.32
2023-04-29T03:04:52.974Z,67.39
2023-04-29T03:07:21.812Z,67.43
2023-04-29T03:09:50.307Z,67.56
2023-04-29T03:12:18.866Z,67.43
2023-04-29T03:14:47.862Z,68.03
2023-04-29T03:17:16.345Z,68.50
2023-04-29T03:19:45.040Z,69.10
2023-04-29T03:22:14.600Z,69.30
2023-04-29T03:24:44.730Z,69.28
2023-04-29T03:27:13.222Z,69.06
2023-04-29T03:29:41.799Z,69.13
2023-04-29T03:32:10.237Z,68.91
2023-04-29T03:34:38.700Z,68.42
2023-04-29T03:37:29.688Z,68.25
2023-04-29T03:40:07.568Z,68.25
2023-04-29T03:42:36.379Z,68.43
2023-04-29T03:45:05.420Z,68.39
2023-04-29T03:47:33.922Z,68.19
2023-04-29T03:50:02.731Z,68.49
2023-04-29T03:52:31.151Z,68.48
2023-04-29T03:55:01.734Z,68.61
2023-04-29T03:57:30.259Z,68.33
2023-04-29T03:59:59.102Z,68.58
2023-04-29T04:02:28.023Z,68.05
2023-04-29T04:04:56.689Z,67.47
2023-04-29T04:07:25.129Z,67.83
2023-04-29T04:10:12.092Z,67.58
2023-04-29T04:12:42.125Z,67.58
2023-04-29T04:15:12.006Z,67.47
2023-04-29T04:17:40.608Z,67.60
2023-04-29T04:20:09.517Z,67.46
2023-04-29T04:22:38.388Z,67.52
2023-04-29T04:25:19.456Z,67.54
2023-04-29T04:27:48.161Z,67.44
2023-04-29T04:30:24.754Z,67.29
2023-04-29T04:32:53.290Z,66.93
2023-04-29T04:35:21.701Z,67.01
2023-04-29T04:37:50.482Z,67.39
2023-04-29T04:40:18.844Z,67.16
2023-04-29T04:43:07.173Z,67.53
2023-04-29T04:45:37.853Z,67.48
2023-04-29T04:48:06.580Z,67.27
2023-04-29T04:50:37.010Z,67.24
2023-04-29T04:53:05.377Z,67.42
2023-04-29T04:55:55.596Z,67.46
2023-04-29T04:58:24.086Z,67.53
2023-04-29T05:00:53.012Z,66.79
2023-04-29T05:03:21.687Z,66.56
2023-04-29T05:05:57.747Z,65.78
2023-04-29T05:08:26.932Z,66.24
2023-04-29T05:10:55.849Z,66.84
2023-04-29T05:13:25.776Z,66.54
2023-04-29T05:15:54.161Z,66.07
2023-04-29T05:18:25.700Z,65.70
2023-04-29T05:20:54.543Z,65.78
2023-04-29T05:23:23.410Z,65.68
2023-04-29T05:25:52.337Z,65.58
2023-04-29T05:28:21.108Z,65.34
2023-04-29T05:30:52.779Z,64.51
2023-04-29T05:33:22.590Z,64.64
2023-04-29T05:35:50.958Z,63.30
2023-04-29T05:38:19.301Z,63.99
2023-04-29T05:41:04.777Z,63.60
2023-04-29T05:43:33.211Z,62.93
2023-04-29T05:46:01.990Z,63.63
2023-04-29T05:48:30.682Z,64.09
2023-04-29T05:50:59.261Z,63.90
2023-04-29T05:53:27.809Z,63.78
2023-04-29T05:55:56.314Z,63.80
2023-04-29T05:58:25.898Z,63.66
2023-04-29T06:00:54.300Z,63.15
2023-04-29T06:03:23.912Z,62.72
2023-04-29T06:05:59.653Z,61.95
2023-04-29T06:08:51.027Z,61.53
2023-04-29T06:11:24.243Z,61.12
2023-04-29T06:13:52.802Z,60.95
2023-04-29T06:16:21.636Z,60.67
2023-04-29T06:18:50.526Z,60.20
2023-04-29T06:21:18.967Z,61.23
2023-04-29T06:23:47.394Z,60.98
2023-04-29T06:26:19.396Z,60.01
2023-04-29T06:28:48.400Z,59.87
2023-04-29T06:31:17.466Z,57.88
2023-04-29T06:33:46.854Z,58.14
2023-04-29T06:36:15.302Z,57.13
2023-04-29T06:39:07.685Z,54.81
2023-04-29T06:41:52.436Z,51.73
2023-04-29T06:44:56.105Z,51.89
2023-04-29T06:47:42.569Z,50.33
2023-04-29T06:50:14.931Z,48.52
2023-04-29T06:52:45.557Z,49.45
2023-04-29T06:55:13.902Z,50.37
2023-04-29T06:57:44.223Z,50.71
2023-04-29T07:00:16.653Z,50.57
2023-04-29T07:02:45.104Z,49.39
2023-04-29T07:05:13.630Z,50.71
2023-04-29T07:07:44.604Z,49.28
2023-04-29T07:10:13.084Z,50.05
2023-04-29T07:12:41.511Z,50.69
2023-04-29T07:15:10.298Z,48.57
2023-04-29T07:17:38.958Z,47.64
2023-04-29T07:20:07.988Z,47.34
2023-04-29T07:22:36.599Z,47.31
2023-04-29T07:25:05.506Z,48.33
2023-04-29T07:27:35.359Z,47.77
2023-04-29T07:30:05.354Z,46.43
2023-04-29T07:32:34.034Z,46.09
2023-04-29T07:35:06.035Z,46.44
2023-04-29T07:37:34.394Z,45.88
2023-04-29T07:40:02.784Z,45.98
2023-04-29T07:42:31.375Z,44.77
2023-04-29T07:45:00.986Z,45.72
2023-04-29T07:47:29.645Z,46.02
2023-04-29T07:49:58.376Z,43.77
2023-04-29T07:52:26.895Z,42.16
2023-04-29T07:54:58.334Z,42.70
2023-04-29T07:57:26.878Z,40.64
2023-04-29T07:59:55.712Z,40.45
2023-04-29T08:02:24.508Z,38.49
2023-04-29T08:04:55.122Z,37.91
2023-04-29T08:07:24.871Z,39.20
2023-04-29T08:09:53.536Z,39.16
2023-04-29T08:12:22.032Z,39.59
2023-04-29T08:14:50.642Z,40.86
2023-04-29T08:17:19.230Z,40.80
2023-04-29T08:19:47.733Z,42.15
2023-04-29T08:22:16.246Z,40.43
2023-04-29T08:24:45.476Z,38.99
2023-04-29T08:27:13.849Z,39.52
2023-04-29T08:29:43.278Z,40.18
2023-04-29T08:32:12.114Z,41.33
2023-04-29T08:34:42.092Z,39.90
2023-04-29T08:37:11.858Z,39.60
2023-04-29T08:39:40.206Z,37.96
2023-04-29T08:42:12.168Z,37.35
2023-04-29T08:44:41.523Z,36.74
2023-04-29T08:47:10.182Z,36.41
2023-04-29T08:49:38.600Z,36.95
2023-04-29T08:52:07.044Z,36.80
2023-04-29T08:54:36.413Z,36.23
2023-04-29T08:57:05.765Z,36.79
2023-04-29T08:59:34.208Z,35.56
2023-04-29T09:02:03.403Z,36.58
2023-04-29T09:04:48.358Z,36.18
2023-04-29T09:07:17.564Z,34.76
2023-04-29T09:09:47.749Z,35.45
2023-04-29T09:12:16.199Z,34.82
2023-04-29T09:14:44.683Z,33.92
2023-04-29T09:17:13.110Z,34.25
2023-04-29T09:19:41.642Z,33.78
2023-04-29T09:22:10.371Z,34.33
2023-04-29T09:24:40.168Z,33.97
2023-04-29T09:27:09.373Z,34.07
2023-04-29T09:29:38.913Z,35.71
2023-04-29T09:32:23.194Z,34.65
2023-04-29T09:34:51.988Z,34.55
2023-04-29T09:37:26.229Z,34.50
2023-04-29T09:39:55.376Z,33.58
2023-04-29T09:42:23.849Z,33.02
2023-04-29T09:44:52.589Z,33.97
2023-04-29T09:47:30.019Z,33.85
2023-04-29T09:50:10.996Z,32.83
2023-04-29T09:52:45.168Z,32.70
2023-04-29T09:55:15.602Z,35.69
2023-04-29T09:57:45.284Z,33.82
2023-04-29T10:00:15.326Z,31.84
2023-04-29T10:02:47.619Z,31.93
2023-04-29T10:05:16.885Z,30.96
2023-04-29T10:07:47.640Z,31.95
2023-04-29T10:10:17.325Z,31.61
2023-04-29T10:12:46.829Z,31.49
2023-04-29T10:15:26.558Z,31.15
2023-04-29T10:17:58.513Z,30.98
2023-04-29T10:20:27.081Z,30.59
2023-04-29T10:22:57.241Z,31.61
2023-04-29T10:25:28.354Z,31.45
2023-04-29T10:27:57.583Z,30.75
2023-04-29T10:30:26.703Z,30.98
2023-04-29T10:32:57.312Z,31.64
2023-04-29T10:35:26.175Z,31.57
2023-04-29T10:37:56.444Z,31.38
2023-04-29T10:40:42.910Z,30.84
2023-04-29T10:43:11.512Z,30.69
2023-04-29T10:45:39.866Z,30.29
2023-04-29T10:48:13.388Z,30.37
2023-04-29T10:51:00.799Z,30.68
2023-04-29T10:53:29.848Z,30.15
2023-04-29T10:56:11.353Z,30.27
2023-04-29T10:58:47.017Z,30.04
2023-04-29T11:01:17.890Z,30.72
2023-04-29T11:04:03.123Z,29.87
2023-04-29T11:06:35.244Z,30.01
2023-04-29T11:09:24.047Z,29.33
2023-04-29T11:11:55.431Z,29.98
2023-04-29T11:14:54.791Z,29.69
2023-04-29T11:17:24.090Z,30.77
2023-04-29T11:19:53.674Z,29.90
2023-04-29T11:22:31.077Z,30.51
2023-04-29T11:25:02.202Z,30.59
2023-04-29T11:27:36.180Z,30.12
2023-04-29T11:30:06.788Z,28.49
2023-04-29T11:32:41.530Z,28.61
2023-04-29T11:35:14.899Z,29.12
2023-04-29T11:37:45.661Z,28.61
2023-04-29T11:40:15.041Z,27.60
2023-04-29T11:42:48.551Z,26.92
2023-04-29T11:45:20.608Z,26.53
2023-04-29T11:47:49.509Z,26.36
2023-04-29T11:50:20.287Z,26.63
2023-04-29T11:52:49.941Z,26.85
2023-04-29T11:55:19.770Z,27.31
2023-04-29T11:57:50.212Z,27.74
2023-04-29T12:00:20.471Z,27.57
2023-04-29T12:02:49.150Z,25.74
2023-04-29T12:05:19.498Z,25.82
2023-04-29T12:07:50.681Z,26.36
2023-04-29T12:10:19.215Z,26.53
2023-04-29T12:12:48.501Z,26.29
2023-04-29T12:15:16.958Z,26.03
2023-04-29T12:17:46.745Z,25.33
2023-04-29T12:20:15.508Z,24.20
2023-04-29T12:22:44.389Z,24.08
2023-04-29T12:25:12.996Z,23.32
2023-04-29T12:27:44.550Z,23.57
2023-04-29T12:30:13.324Z,22.59
2023-04-29T12:32:42.319Z,23.70
2023-04-29T12:35:18.095Z,23.57
2023-04-29T12:37:52.661Z,23.90
2023-04-29T12:40:21.415Z,24.28
2023-04-29T12:42:49.780Z,23.80
2023-04-29T12:45:32.416Z,23.41
2023-04-29T12:48:01.840Z,23.73
2023-04-29T12:50:38.844Z,23.66
2023-04-29T12:53:08.745Z,23.79
2023-04-29T12:55:38.220Z,23.28
2023-04-29T12:58:07.591Z,23.52
2023-04-29T13:00:37.660Z,24.23
2023-04-29T13:03:06.750Z,23.67
2023-04-29T13:05:35.595Z,23.19
2023-04-29T13:08:06.910Z,23.01
2023-04-29T13:10:36.004Z,22.36
2023-04-29T13:13:04.460Z,22.84
2023-04-29T13:15:33.550Z,22.27
2023-04-29T13:18:02.676Z,22.24
2023-04-29T13:20:31.773Z,22.72
2023-04-29T13:23:01.286Z,22.57
2023-04-29T13:25:29.714Z,22.02
2023-04-29T13:27:58.095Z,21.65
2023-04-29T13:30:26.589Z,21.71
2023-04-29T13:32:58.767Z,21.37
2023-04-29T13:35:32.652Z,21.05
2023-04-29T13:38:01.748Z,20.76
2023-04-29T13:40:31.287Z,20.61
2023-04-29T13:43:05.917Z,20.62
2023-04-29T13:45:39.427Z,21.11
2023-04-29T13:48:24.655Z,21.40
2023-04-29T13:51:33.270Z,20.85
2023-04-29T13:54:41.092Z,20.81
2023-04-29T14:04:07.955Z,20.08
2023-04-29T14:06:36.552Z,20.21
2023-04-29T14:09:04.990Z,19.50
2023-04-29T14:11:37.059Z,19.93
2023-04-29T14:14:05.586Z,19.71
2023-04-29T14:16:34.001Z,20.10
2023-04-29T14:19:03.977Z,20.64
2023-04-29T14:21:33.793Z,20.73
2023-04-29T14:24:03.561Z,20.46
2023-04-29T14:26:32.296Z,20.67
2023-04-29T14:29:00.717Z,20.68
2023-04-29T14:31:41.977Z,21.12
2023-04-29T14:34:10.772Z,20.61
2023-04-29T14:36:39.196Z,20.49
2023-04-29T14:39:07.606Z,20.22
2023-04-29T14:41:36.293Z,19.92
2023-04-29T14:44:04.760Z,20.56
2023-04-29T14:46:33.312Z,20.60
2023-04-29T14:49:02.097Z,21.01
2023-04-29T14:51:31.459Z,21.20
2023-04-29T14:53:59.835Z,21.68
2023-04-29T14:56:28.716Z,22.07
2023-04-29T14:58:57.102Z,22.91
2023-04-29T15:01:28.689Z,22.67
2023-04-29T15:03:58.312Z,23.13
2023-04-29T15:06:27.882Z,23.45
2023-04-29T15:08:57.132Z,23.45
2023-04-29T15:11:26.465Z,23.80
2023-04-29T15:13:54.999Z,24.21
2023-04-29T15:16:23.564Z,24.30
2023-04-29T15:18:51.952Z,24.16
2023-04-29T15:21:21.212Z,24.46
2023-04-29T15:23:49.793Z,24.54
2023-04-29T15:26:18.271Z,24.66
2023-04-29T15:28:46.936Z,25.51
2023-04-29T15:31:15.460Z,24.50
2023-04-29T15:33:43.902Z,24.78
2023-04-29T15:36:12.381Z,24.93
2023-04-29T15:38:40.808Z,25.21
2023-04-29T15:41:09.181Z,25.23
2023-04-29T15:43:40.049Z,25.10
2023-04-29T15:46:08.853Z,24.95
2023-04-29T15:48:37.258Z,24.56
2023-04-29T15:51:05.792Z,24.96
2023-04-29T15:53:34.206Z,25.21
2023-04-29T15:56:02.649Z,25.85
2023-04-29T15:58:31.123Z,26.06
2023-04-29T16:00:59.637Z,25.75
2023-04-29T16:03:28.393Z,25.65
2023-04-29T16:05:56.947Z,25.75
2023-04-29T16:08:25.382Z,26.17
2023-04-29T16:10:54.682Z,26.06
2023-04-29T16:13:23.196Z,26.17
2023-04-29T16:15:51.580Z,26.49
2023-04-29T16:18:20.095Z,26.51
2023-04-29T16:20:48.830Z,26.86
2023-04-29T16:23:17.239Z,26.82
2023-04-29T16:25:45.655Z,26.92
2023-04-29T16:28:16.140Z,26.73
2023-04-29T16:30:44.745Z,26.34
2023-04-29T16:33:14.301Z,26.37
2023-04-29T16:35:44.757Z,26.58
2023-04-29T16:38:13.186Z,26.87
2023-04-29T16:40:41.592Z,26.89
2023-04-29T16:43:10.039Z,27.64
2023-04-29T16:45:38.603Z,27.75
2023-04-29T16:48:08.241Z,27.57
2023-04-29T16:50:37.855Z,28.09
2023-04-29T16:53:06.531Z,28.51
2023-04-29T16:55:34.866Z,28.74
2023-04-29T16:58:05.534Z,29.02
2023-04-29T17:00:34.023Z,29.13
2023-04-29T17:03:02.562Z,29.45
2023-04-29T17:05:31.091Z,29.88
2023-04-29T17:07:59.522Z,30.27
2023-04-29T17:10:27.936Z,30.40
2023-04-29T17:12:56.309Z,30.21
2023-04-29T17:15:24.681Z,30.63
2023-04-29T17:17:55.249Z,31.00
2023-04-29T17:20:23.769Z,31.22
2023-04-29T17:22:52.454Z,31.24
2023-04-29T17:25:22.684Z,31.36
2023-04-29T17:27:51.230Z,31.33
2023-04-29T17:30:19.659Z,31.49
2023-04-29T17:32:49.974Z,31.78
2023-04-29T17:35:18.724Z,31.91
2023-04-29T17:37:48.086Z,31.93
2023-04-29T17:40:16.401Z,32.45
2023-04-29T17:42:44.836Z,32.36
2023-04-29T17:45:13.530Z,32.22
2023-04-29T17:47:41.939Z,32.59
2023-04-29T17:50:10.635Z,32.57
2023-04-29T17:52:39.053Z,32.83
2023-04-29T17:55:07.778Z,32.71
2023-04-29T17:57:38.223Z,33.44
2023-04-29T18:00:07.650Z,33.43
2023-04-29T18:02:37.378Z,33.42
2023-04-29T18:05:06.506Z,33.48
2023-04-29T18:07:35.300Z,33.42
2023-04-29T18:10:04.151Z,33.71
2023-04-29T18:12:32.576Z,33.79
2023-04-29T18:15:01.911Z,33.85
2023-04-29T18:17:30.405Z,34.04
2023-04-29T18:19:58.853Z,34.55
2023-04-29T18:22:27.250Z,34.64
2023-04-29T18:24:57.222Z,35.10
2023-04-29T18:27:27.773Z,35.31
2023-04-29T18:29:56.501Z,35.50
2023-04-29T18:32:25.056Z,35.19
2023-04-29T18:34:53.410Z,35.25
2023-04-29T18:37:21.828Z,35.25
2023-04-29T18:39:50.602Z,34.99
2023-04-29T18:42:18.985Z,35.38
2023-04-29T18:44:49.529Z,35.05
2023-04-29T18:47:18.053Z,35.65
2023-04-29T18:49:46.550Z,35.70
2023-04-29T18:52:14.959Z,36.01
2023-04-29T18:54:43.349Z,35.93
2023-04-29T18:57:12.154Z,36.19
2023-04-29T18:59:41.668Z,36.15
2023-04-29T19:02:10.892Z,36.34
2023-04-29T19:04:39.417Z,36.39
2023-04-29T19:07:07.903Z,36.10
2023-04-29T19:09:36.575Z,36.03
2023-04-29T19:12:05.420Z,36.02
2023-04-29T19:14:34.432Z,36.34
2023-04-29T19:17:02.866Z,36.35
2023-04-29T19:19:31.236Z,36.42
2023-04-29T19:21:59.761Z,36.71
2023-04-29T19:24:28.146Z,37.16
2023-04-29T19:26:56.537Z,37.23
2023-04-29T19:29:24.945Z,37.09
2023-04-29T19:31:53.359Z,37.41
2023-04-29T19:34:22.186Z,37.49
2023-04-29T19:36:50.849Z,37.30
2023-04-29T19:39:19.352Z,37.37
2023-04-29T19:41:47.944Z,37.20
2023-04-29T19:44:16.368Z,36.97
2023-04-29T19:46:44.768Z,36.97
2023-04-29T19:49:13.684Z,37.41
2023-04-29T19:51:42.620Z,37.22
2023-04-29T19:54:11.115Z,37.16
2023-04-29T19:56:39.616Z,37.01
2023-04-29T19:59:07.946Z,37.07
2023-04-29T20:01:36.314Z,36.99
2023-04-29T20:04:04.880Z,37.17
2023-04-29T20:06:35.265Z,37.25
2023-04-29T20:09:04.802Z,36.96
2023-04-29T20:11:33.504Z,37.33
2023-04-29T20:14:01.825Z,37.06
2023-04-29T20:16:32.059Z,37.25
2023-04-29T20:19:00.650Z,37.18
2023-04-29T20:21:29.040Z,37.12
2023-04-29T20:23:57.365Z,37.22
2023-04-29T20:26:27.595Z,37.28
2023-04-29T20:28:56.005Z,37.16
2023-04-29T20:31:24.614Z,37.59
2023-04-29T20:33:53.937Z,37.44
2023-04-29T20:36:22.784Z,37.51
2023-04-29T20:38:51.782Z,37.60
2023-04-29T20:41:20.177Z,37.65
2023-04-29T20:43:48.746Z,37.67
2023-04-29T20:46:17.669Z,38.01
2023-04-29T20:48:46.298Z,38.32
2023-04-29T20:51:14.706Z,38.31
2023-04-29T20:53:43.128Z,38.53
2023-04-29T20:56:11.537Z,38.45
2023-04-29T20:58:39.965Z,38.41
2023-04-29T21:01:08.696Z,38.46
2023-04-29T21:03:37.123Z,38.45
2023-04-29T21:06:05.616Z,38.38
2023-04-29T21:08:34.129Z,38.68
2023-04-29T21:11:02.826Z,38.89
2023-04-29T21:13:31.513Z,39.16
2023-04-29T21:15:59.926Z,39.48
2023-04-29T21:18:28.386Z,39.37
2023-04-29T21:20:56.888Z,39.70
2023-04-29T21:23:25.397Z,39.85
2023-04-29T21:25:53.737Z,39.95
2023-04-29T21:28:22.062Z,39.96
2023-04-29T21:30:51.138Z,40.29
2023-04-29T21:33:19.600Z,40.52
2023-04-29T21:35:51.668Z,41.33
2023-04-29T21:38:21.018Z,41.33
2023-04-29T21:40:49.373Z,41.66
2023-04-29T21:43:18.721Z,41.91
2023-04-29T21:45:47.234Z,42.54
2023-04-29T21:48:17.596Z,43.20
2023-04-29T21:50:46.570Z,43.63
2023-04-29T21:53:16.678Z,44.14
2023-04-29T21:55:45.548Z,43.87
2023-04-29T21:58:14.312Z,44.57
2023-04-29T22:00:51.451Z,44.06
2023-04-29T22:03:19.922Z,43.04
2023-04-29T22:05:48.312Z,43.01
2023-04-29T22:08:16.709Z,42.34
2023-04-29T22:10:45.224Z,42.50
2023-04-29T22:13:13.592Z,42.59
2023-04-29T22:15:42.033Z,42.69
2023-04-29T22:18:10.460Z,42.77
2023-04-29T22:20:38.949Z,42.82
2023-04-29T22:23:07.334Z,43.28
2023-04-29T22:25:36.249Z,43.13
2023-04-29T22:28:04.829Z,43.20
2023-04-29T22:30:33.276Z,43.18
2023-04-29T22:33:01.984Z,43.28
2023-04-29T22:35:30.427Z,43.36
2023-04-29T22:37:58.814Z,43.63
2023-04-29T22:40:27.213Z,43.84
2023-04-29T22:42:55.638Z,44.15
2023-04-29T22:45:24.188Z,44.33
2023-04-29T22:47:53.443Z,44.28
2023-04-29T22:50:21.813Z,44.69
2023-04-29T22:52:50.180Z,44.87
2023-04-29T22:55:18.533Z,45.19
2023-04-29T22:57:46.880Z,45.48
2023-04-29T23:00:16.060Z,45.83
2023-04-29T23:02:44.507Z,46.02
2023-04-29T23:05:12.856Z,46.54
2023-04-29T23:07:41.496Z,46.88
2023-04-29T23:10:10.350Z,47.43
2023-04-29T23:12:38.696Z,47.68
2023-04-29T23:15:07.734Z,48.15
2023-04-29T23:17:37.772Z,48.55
2023-04-29T23:20:07.817Z,49.99
2023-04-29T23:22:36.362Z,49.95
2023-04-29T23:25:04.973Z,50.01
2023-04-29T23:27:33.385Z,50.41
2023-04-29T23:30:02.611Z,50.60
2023-04-29T23:32:30.997Z,50.44
2023-04-29T23:34:59.472Z,50.68
2023-04-29T23:37:27.875Z,51.00
2023-04-29T23:39:57.187Z,51.11
2023-04-29T23:42:27.594Z,51.40
2023-04-29T23:44:56.606Z,51.53
2023-04-29T23:47:25.073Z,51.80
2023-04-29T23:49:53.763Z,51.64
2023-04-29T23:52:22.461Z,51.29
2023-04-29T23:54:50.880Z,51.53
2023-04-29T23:57:19.290Z,51.58
2023-04-29T23:59:47.721Z,51.97
